Time;durP1;ratioP1;P1;durP2;ratioP2;P2;SDS_P1;SDS_P2;PMS_P1;PMS_P2;Temp;Humidity;BMP_temperature;BMP_pressure;BME280_temperature;BME280_humidity;BME280_pressure;Samples;Min_cycle;Max_cycle;Signal;HPM_P1;HPM_P2
2023/02/28 00:00:09;;;;;;;6.28;2.30;;;;;;;;;;5032400;28;20414;-68
2023/02/28 00:02:36;;;;;;;5.18;1.80;;;;;;;;;;5030533;28;20102;-67
2023/02/28 00:05:03;;;;;;;6.40;2.33;;;;;;;;;;5032905;28;20029;-67
2023/02/28 00:07:30;;;;;;;5.93;2.08;;;;;;;;;;5030161;28;20090;-68
2023/02/28 00:09:56;;;;;;;5.78;2.10;;;;;;;;;;5027940;28;20320;-68
2023/02/28 00:12:22;;;;;;;6.70;2.20;;;;;;;;;;5035039;28;20262;-66
2023/02/28 00:14:49;;;;;;;6.38;2.00;;;;;;;;;;5031199;28;20827;-67
2023/02/28 00:17:16;;;;;;;7.90;2.33;;;;;;;;;;5029566;28;20723;-68
2023/02/28 00:19:42;;;;;;;6.07;1.70;;;;;;;;;;5031227;28;20467;-68
2023/02/28 00:22:08;;;;;;;3.92;1.52;;;;;;;;;;5030280;28;20468;-66
2023/02/28 00:24:34;;;;;;;3.67;1.45;;;;;;;;;;5026090;28;20013;-67
2023/02/28 00:27:00;;;;;;;3.03;1.25;;;;;;;;;;5029185;28;20720;-68
2023/02/28 00:29:26;;;;;;;4.78;1.50;;;;;;;;;;5028000;28;20037;-68
2023/02/28 00:31:53;;;;;;;4.90;1.50;;;;;;;;;;5036229;28;20045;-67
2023/02/28 00:34:19;;;;;;;5.32;1.90;;;;;;;;;;5037720;28;20032;-68
2023/02/28 00:36:48;;;;;;;6.72;1.92;;;;;;;;;;5036682;28;20776;-67
2023/02/28 00:39:15;;;;;;;4.32;1.60;;;;;;;;;;5036983;28;20028;-67
2023/02/28 00:41:41;;;;;;;7.47;1.73;;;;;;;;;;5031236;28;20040;-68
2023/02/28 00:44:07;;;;;;;5.88;2.05;;;;;;;;;;5043187;28;20031;-67
2023/02/28 00:46:33;;;;;;;6.30;2.33;;;;;;;;;;5037893;28;20448;-68
2023/02/28 00:48:59;;;;;;;5.72;1.77;;;;;;;;;;5039482;28;20035;-67
2023/02/28 00:51:25;;;;;;;5.55;1.83;;;;;;;;;;5034271;28;20059;-66
2023/02/28 00:53:51;;;;;;;4.80;1.52;;;;;;;;;;5043148;28;20074;-67
2023/02/28 00:56:18;;;;;;;5.00;1.90;;;;;;;;;;5040282;28;20033;-67
2023/02/28 00:58:44;;;;;;;5.78;2.05;;;;;;;;;;5041957;28;20040;-66
2023/02/28 01:01:10;;;;;;;8.95;4.00;;;;;;;;;;5040271;28;20032;-68
2023/02/28 01:03:36;;;;;;;6.75;2.33;;;;;;;;;;5037873;28;20110;-68
2023/02/28 01:06:02;;;;;;;6.25;2.25;;;;;;;;;;5039371;28;20035;-68
2023/02/28 01:08:28;;;;;;;5.43;1.90;;;;;;;;;;5034349;28;20032;-66
2023/02/28 01:10:55;;;;;;;6.00;2.40;;;;;;;;;;5040033;28;20494;-66
2023/02/28 01:13:22;;;;;;;6.05;2.00;;;;;;;;;;5043064;28;20543;-68
2023/02/28 01:15:53;;;;;;;4.75;1.90;;;;;;;;;;5038819;28;20498;-67
2023/02/28 01:18:20;;;;;;;5.20;1.92;;;;;;;;;;5038697;28;20033;-66
2023/02/28 01:20:46;;;;;;;4.32;1.60;;;;;;;;;;5034915;28;20538;-67
2023/02/28 01:23:12;;;;;;;5.25;1.88;;;;;;;;;;5039809;28;20565;-66
2023/02/28 01:25:39;;;;;;;6.45;2.13;;;;;;;;;;5032832;28;20104;-66
2023/02/28 01:28:05;;;;;;;;;;;;;;;;;;5038965;28;20035;-69
2023/02/28 01:30:31;;;;;;;5.10;1.60;;;;;;;;;;5037773;28;19920;-66
2023/02/28 01:32:57;;;;;;;5.45;1.75;;;;;;;;;;5040590;28;20033;-67
2023/02/28 01:35:24;;;;;;;4.80;1.80;;;;;;;;;;5035265;28;20142;-67
2023/02/28 01:37:50;;;;;;;5.72;1.70;;;;;;;;;;5037044;28;20428;-67
2023/02/28 01:40:16;;;;;;;5.75;1.60;;;;;;;;;;5038819;28;20048;-67
2023/02/28 01:42:42;;;;;;;3.72;1.40;;;;;;;;;;5036921;28;20046;-67
2023/02/28 01:45:08;;;;;;;4.15;1.40;;;;;;;;;;5036798;28;20039;-67
2023/02/28 01:47:40;;;;;;;3.80;1.30;;;;;;;;;;5041499;28;20036;-67
2023/02/28 01:50:10;;;;;;;3.60;1.40;;;;;;;;;;5035493;28;20048;-69
2023/02/28 01:52:36;;;;;;;4.53;1.60;;;;;;;;;;5033072;28;20445;-67
2023/02/28 01:55:04;;;;;;;3.90;1.50;;;;;;;;;;5041531;28;20031;-67
2023/02/28 01:57:37;;;;;;;5.57;1.40;;;;;;;;;;5038706;28;20040;-67
2023/02/28 02:00:17;;;;;;;4.65;1.48;;;;;;;;;;5036091;28;20479;-68
2023/02/28 02:02:45;;;;;;;6.15;1.55;;;;;;;;;;5036617;28;20087;-68
2023/02/28 02:05:14;;;;;;;3.08;1.15;;;;;;;;;;5036855;28;20059;-67
2023/02/28 02:07:42;;;;;;;3.75;1.20;;;;;;;;;;5032123;28;20068;-67
2023/02/28 02:10:18;;;;;;;3.55;1.25;;;;;;;;;;5039549;28;20033;-67
2023/02/28 02:12:56;;;;;;;3.15;1.10;;;;;;;;;;5032640;28;20035;-66
2023/02/28 02:15:29;;;;;;;1.90;1.00;;;;;;;;;;5037082;28;20882;-67
2023/02/28 02:17:58;;;;;;;3.78;1.27;;;;;;;;;;5037796;28;20040;-67
2023/02/28 02:20:43;;;;;;;3.83;1.30;;;;;;;;;;5039760;28;20046;-67
2023/02/28 02:23:35;;;;;;;2.97;1.08;;;;;;;;;;5035825;28;20044;-67
2023/02/28 02:26:09;;;;;;;2.35;1.05;;;;;;;;;;5040242;28;20029;-67
2023/02/28 02:28:54;;;;;;;4.32;1.30;;;;;;;;;;5016682;28;20040;-67
2023/02/28 02:31:55;;;;;;;4.22;1.20;;;;;;;;;;5021207;28;20032;-68
2023/02/28 02:34:27;;;;;;;3.90;1.25;;;;;;;;;;4941966;28;20695;-67
2023/02/28 02:37:12;;;;;;;3.75;1.30;;;;;;;;;;4939972;28;20155;-68
2023/02/28 02:39:40;;;;;;;4.22;1.13;;;;;;;;;;4941653;28;20399;-69
2023/02/28 02:42:12;;;;;;;2.38;1.00;;;;;;;;;;4942468;28;20027;-69
2023/02/28 02:44:44;;;;;;;3.78;1.15;;;;;;;;;;4943170;28;20043;-69
2023/02/28 02:47:15;;;;;;;2.25;0.80;;;;;;;;;;4942128;28;20552;-69
2023/02/28 02:49:44;;;;;;;2.38;0.80;;;;;;;;;;4936695;28;20476;-68
2023/02/28 02:52:12;;;;;;;2.45;0.82;;;;;;;;;;4942379;28;20033;-68
2023/02/28 02:54:41;;;;;;;2.15;0.80;;;;;;;;;;4937852;28;20088;-69
2023/02/28 02:57:10;;;;;;;4.70;1.00;;;;;;;;;;4942045;28;20065;-68
2023/02/28 02:59:39;;;;;;;2.28;0.95;;;;;;;;;;4940743;28;20031;-69
2023/02/28 03:02:07;;;;;;;2.88;1.10;;;;;;;;;;4945253;28;20041;-69
2023/02/28 03:04:37;;;;;;;2.50;0.75;;;;;;;;;;4957531;28;20038;-70
2023/02/28 03:07:03;;;;;;;1.80;0.90;;;;;;;;;;4959180;28;20088;-70
2023/02/28 03:09:29;;;;;;;2.13;0.88;;;;;;;;;;5027949;28;20175;-71
2023/02/28 03:11:56;;;;;;;2.22;0.80;;;;;;;;;;5036073;28;20031;-71
2023/02/28 03:14:38;;;;;;;1.58;0.70;;;;;;;;;;5032673;28;20032;-69
2023/02/28 03:17:21;;;;;;;2.00;0.80;;;;;;;;;;5034640;28;20409;-70
2023/02/28 03:20:06;;;;;;;3.10;0.80;;;;;;;;;;5033329;28;20843;-69
2023/02/28 03:22:50;;;;;;;0.80;0.50;;;;;;;;;;5036579;28;20025;-69
2023/02/28 03:25:20;;;;;;;1.23;0.50;;;;;;;;;;5037852;28;20429;-69
2023/02/28 03:27:54;;;;;;;1.73;0.60;;;;;;;;;;5034995;28;20268;-71
2023/02/28 03:30:25;;;;;;;1.20;0.60;;;;;;;;;;5033565;28;20387;-71
2023/02/28 03:32:51;;;;;;;1.98;0.70;;;;;;;;;;5033045;28;20032;-70
2023/02/28 03:35:30;;;;;;;3.75;1.40;;;;;;;;;;5036310;28;20623;-69
2023/02/28 03:38:03;;;;;;;3.47;0.90;;;;;;;;;;5036567;28;20073;-71
2023/02/28 03:40:32;;;;;;;0.95;0.50;;;;;;;;;;5036465;28;20029;-69
2023/02/28 03:43:02;;;;;;;0.98;0.47;;;;;;;;;;5035882;28;20450;-69
2023/02/28 03:45:34;;;;;;;1.40;0.52;;;;;;;;;;5035312;28;20485;-69
2023/02/28 03:48:10;;;;;;;1.00;0.50;;;;;;;;;;5035566;28;20028;-69
2023/02/28 03:50:38;;;;;;;0.63;0.40;;;;;;;;;;5031833;28;20029;-69
2023/02/28 03:53:42;;;;;;;0.77;0.40;;;;;;;;;;5037123;28;20032;-69
2023/02/28 03:56:19;;;;;;;1.13;0.40;;;;;;;;;;5031375;28;21159;-70
2023/02/28 03:58:45;;;;;;;;;;;;;;;;;;5014087;28;20370;-69
2023/02/28 04:01:13;;;;;;;1.38;0.52;;;;;;;;;;5041886;28;20598;-71
2023/02/28 04:03:40;;;;;;;1.55;0.52;;;;;;;;;;5036070;28;20029;-70
2023/02/28 04:06:13;;;;;;;3.65;0.70;;;;;;;;;;5045392;28;20115;-71
2023/02/28 04:08:39;;;;;;;6.13;1.00;;;;;;;;;;5043096;28;20044;-70
2023/02/28 04:11:09;;;;;;;2.88;0.80;;;;;;;;;;5029619;28;20035;-71
2023/02/28 04:13:35;;;;;;;2.97;0.80;;;;;;;;;;5037148;28;20040;-70
2023/02/28 04:16:01;;;;;;;3.00;0.70;;;;;;;;;;5039227;28;20068;-71
2023/02/28 04:18:27;;;;;;;3.45;0.77;;;;;;;;;;5035122;28;20042;-71
2023/02/28 04:20:53;;;;;;;3.60;0.80;;;;;;;;;;5040203;28;20041;-71
2023/02/28 04:23:20;;;;;;;1.95;0.60;;;;;;;;;;5038530;28;20399;-70
2023/02/28 04:25:46;;;;;;;2.13;0.82;;;;;;;;;;5016620;28;20024;-70
2023/02/28 04:28:12;;;;;;;3.85;0.90;;;;;;;;;;5043002;28;20033;-70
2023/02/28 04:30:39;;;;;;;4.95;1.05;;;;;;;;;;5040878;28;20040;-70
2023/02/28 04:33:05;;;;;;;;;;;;;;;;;;5037701;28;20064;-71
2023/02/28 04:35:31;;;;;;;7.40;1.55;;;;;;;;;;5041405;28;19967;-71
2023/02/28 04:37:57;;;;;;;3.78;0.93;;;;;;;;;;5040247;28;20547;-70
2023/02/28 04:40:23;;;;;;;5.22;1.02;;;;;;;;;;5038528;28;20035;-71
2023/02/28 04:42:49;;;;;;;6.30;1.10;;;;;;;;;;5040162;28;20085;-71
2023/02/28 04:45:17;;;;;;;5.32;1.10;;;;;;;;;;5043918;28;20774;-71
2023/02/28 04:47:43;;;;;;;5.78;1.20;;;;;;;;;;5036900;28;20036;-70
2023/02/28 04:50:09;;;;;;;5.72;1.27;;;;;;;;;;5041793;28;20399;-70
2023/02/28 04:52:35;;;;;;;8.57;1.35;;;;;;;;;;5036315;28;20131;-71
2023/02/28 04:55:01;;;;;;;8.23;1.88;;;;;;;;;;5039702;28;20024;-71
2023/02/28 04:57:28;;;;;;;9.73;1.60;;;;;;;;;;5034577;28;20045;-72
2023/02/28 04:59:54;;;;;;;10.70;1.80;;;;;;;;;;5041550;28;20031;-70
2023/02/28 05:02:20;;;;;;;7.72;1.63;;;;;;;;;;5038641;28;20035;-70
2023/02/28 05:04:47;;;;;;;6.95;1.27;;;;;;;;;;5036011;28;20367;-71
2023/02/28 05:07:13;;;;;;;8.32;1.70;;;;;;;;;;5039021;28;20391;-71
2023/02/28 05:09:39;;;;;;;11.27;2.00;;;;;;;;;;5037284;28;20134;-71
2023/02/28 05:12:05;;;;;;;10.75;1.80;;;;;;;;;;5038848;28;20024;-71
2023/02/28 05:14:32;;;;;;;9.05;1.80;;;;;;;;;;5034091;28;20363;-71
2023/02/28 05:16:58;;;;;;;10.18;1.80;;;;;;;;;;5038339;28;20037;-70
2023/02/28 05:19:24;;;;;;;10.77;1.92;;;;;;;;;;5037525;28;20033;-70
2023/02/28 05:21:51;;;;;;;11.75;1.80;;;;;;;;;;5037837;28;20742;-72
2023/02/28 05:24:24;;;;;;;11.27;2.13;;;;;;;;;;5037389;28;20027;-72
2023/02/28 05:26:52;;;;;;;12.77;2.20;;;;;;;;;;5040576;28;20029;-71
2023/02/28 05:29:19;;;;;;;14.00;2.22;;;;;;;;;;5036414;28;20363;-72
2023/02/28 05:31:45;;;;;;;15.45;3.38;;;;;;;;;;5040195;28;20207;-72
2023/02/28 05:34:12;;;;;;;14.88;2.40;;;;;;;;;;5039867;28;20044;-72
2023/02/28 05:36:39;;;;;;;12.63;2.28;;;;;;;;;;5033048;28;20558;-72
2023/02/28 05:39:05;;;;;;;;;;;;;;;;;;5034734;28;20439;-72
2023/02/28 05:41:31;;;;;;;16.38;2.75;;;;;;;;;;5037729;28;20385;-72
2023/02/28 05:43:59;;;;;;;14.73;2.35;;;;;;;;;;5038544;28;20028;-72
2023/02/28 05:46:25;;;;;;;12.05;2.35;;;;;;;;;;5035951;28;20119;-70
2023/02/28 05:48:51;;;;;;;9.50;2.10;;;;;;;;;;5039852;28;20017;-70
2023/02/28 05:51:18;;;;;;;13.10;2.30;;;;;;;;;;5036351;28;20024;-71
2023/02/28 05:53:44;;;;;;;13.55;2.35;;;;;;;;;;5032052;28;20055;-72
2023/02/28 05:56:10;;;;;;;17.15;3.22;;;;;;;;;;5041032;28;20157;-73
2023/02/28 05:58:36;;;;;;;16.42;3.25;;;;;;;;;;5034772;28;20040;-72
2023/02/28 06:01:19;;;;;;;19.70;3.20;;;;;;;;;;5038559;28;20355;-74
2023/02/28 06:03:45;;;;;;;20.17;3.15;;;;;;;;;;5031356;28;20410;-72
2023/02/28 06:06:12;;;;;;;19.67;3.00;;;;;;;;;;5038249;28;20056;-71
2023/02/28 06:08:38;;;;;;;17.90;2.80;;;;;;;;;;5037954;28;20131;-71
2023/02/28 06:11:04;;;;;;;17.58;3.05;;;;;;;;;;5038316;28;20036;-72
2023/02/28 06:13:30;;;;;;;17.60;3.50;;;;;;;;;;5033427;28;20079;-72
2023/02/28 06:15:56;;;;;;;14.52;3.15;;;;;;;;;;5039741;28;20025;-73
2023/02/28 06:18:23;;;;;;;11.80;2.35;;;;;;;;;;5036039;28;20040;-73
2023/02/28 06:20:55;;;;;;;10.35;2.20;;;;;;;;;;5039723;28;20124;-72
2023/02/28 06:23:22;;;;;;;13.68;2.03;;;;;;;;;;5045946;28;20037;-73
2023/02/28 06:25:49;;;;;;;;;;;;;;;;;;5042290;28;20068;-72
2023/02/28 06:28:15;;;;;;;11.00;2.33;;;;;;;;;;5047714;28;20699;-73
2023/02/28 06:30:41;;;;;;;15.57;2.67;;;;;;;;;;5041901;28;20049;-71
2023/02/28 06:33:08;;;;;;;16.90;3.33;;;;;;;;;;5041113;28;20033;-70
2023/02/28 06:35:34;;;;;;;17.77;3.20;;;;;;;;;;5043835;28;20052;-73
2023/02/28 06:38:00;;;;;;;16.65;3.47;;;;;;;;;;5035684;28;20110;-72
2023/02/28 06:40:26;;;;;;;11.48;2.50;;;;;;;;;;5034537;28;20354;-72
2023/02/28 06:42:52;;;;;;;17.70;3.53;;;;;;;;;;5038607;28;20348;-72
2023/02/28 06:45:18;;;;;;;18.75;3.78;;;;;;;;;;5042329;28;20008;-73
2023/02/28 06:47:45;;;;;;;22.20;3.53;;;;;;;;;;5037716;28;20044;-73
2023/02/28 06:50:12;;;;;;;20.30;4.22;;;;;;;;;;5038893;28;20036;-73
2023/02/28 06:52:39;;;;;;;19.70;4.18;;;;;;;;;;5033884;28;20067;-74
2023/02/28 06:55:05;;;;;;;;;;;;;;;;;;5031603;28;20536;-74
2023/02/28 06:57:32;;;;;;;23.17;4.30;;;;;;;;;;5036034;28;19969;-75
2023/02/28 06:59:57;;;;;;;;;;;;;;;;;;5035495;28;20394;-74
2023/02/28 07:02:24;;;;;;;21.73;3.63;;;;;;;;;;5035147;28;19916;-73
2023/02/28 07:04:50;;;;;;;15.15;3.17;;;;;;;;;;5037858;28;20546;-73
2023/02/28 07:07:16;;;;;;;19.10;3.45;;;;;;;;;;5034305;28;20444;-73
2023/02/28 07:09:42;;;;;;;16.17;3.10;;;;;;;;;;5033001;28;20520;-74
2023/02/28 07:12:09;;;;;;;28.38;4.53;;;;;;;;;;5033879;28;20470;-75
2023/02/28 07:14:37;;;;;;;20.60;4.32;;;;;;;;;;5032547;28;20536;-72
2023/02/28 07:17:03;;;;;;;20.63;3.10;;;;;;;;;;5037566;28;20238;-73
2023/02/28 07:19:29;;;;;;;17.75;3.13;;;;;;;;;;5032505;28;20052;-75
2023/02/28 07:22:05;;;;;;;17.70;3.10;;;;;;;;;;5042824;28;20029;-75
2023/02/28 07:24:31;;;;;;;16.25;2.90;;;;;;;;;;5033384;28;20029;-74
2023/02/28 07:26:57;;;;;;;13.63;2.67;;;;;;;;;;5032843;28;20642;-75
2023/02/28 07:29:24;;;;;;;13.38;2.60;;;;;;;;;;5035749;28;20048;-74
2023/02/28 07:31:52;;;;;;;14.52;2.78;;;;;;;;;;5034885;28;20687;-75
2023/02/28 07:34:19;;;;;;;12.77;2.50;;;;;;;;;;5035001;28;20133;-74
2023/02/28 07:36:45;;;;;;;13.52;2.58;;;;;;;;;;5029574;28;20044;-72
2023/02/28 07:39:11;;;;;;;15.70;2.58;;;;;;;;;;5033701;28;20348;-75
2023/02/28 07:41:43;;;;;;;12.60;2.70;;;;;;;;;;5027049;28;20069;-72
2023/02/28 07:44:10;;;;;;;18.38;3.95;;;;;;;;;;5031508;28;20035;-74
2023/02/28 07:46:36;;;;;;;24.40;4.47;;;;;;;;;;5026627;28;20162;-73
2023/02/28 07:49:05;;;;;;;19.60;4.13;;;;;;;;;;5027795;28;20637;-74
2023/02/28 07:51:31;;;;;;;15.30;3.67;;;;;;;;;;5030958;28;20746;-75
2023/02/28 07:53:57;;;;;;;23.45;4.32;;;;;;;;;;5033127;28;20053;-74
2023/02/28 07:56:24;;;;;;;16.92;3.85;;;;;;;;;;5028920;28;20040;-75
2023/02/28 07:58:50;;;;;;;;;;;;;;;;;;5034376;28;20767;-73
2023/02/28 08:01:17;;;;;;;21.80;4.90;;;;;;;;;;5033279;28;19921;-74
2023/02/28 08:03:43;;;;;;;;;;;;;;;;;;5032365;28;20117;-74
2023/02/28 08:06:15;;;;;;;22.75;4.88;;;;;;;;;;5030179;28;19921;-74
2023/02/28 08:08:41;;;;;;;23.63;4.35;;;;;;;;;;5026991;28;20028;-73
2023/02/28 08:11:08;;;;;;;23.58;4.20;;;;;;;;;;5032876;28;20043;-76
2023/02/28 08:13:34;;;;;;;23.30;4.90;;;;;;;;;;5032122;28;20575;-75
2023/02/28 08:16:02;;;;;;;26.30;4.65;;;;;;;;;;5033347;28;20036;-74
2023/02/28 08:18:28;;;;;;;27.52;4.93;;;;;;;;;;5029864;28;20036;-75
2023/02/28 08:20:54;;;;;;;23.30;4.25;;;;;;;;;;5031474;28;20104;-76
2023/02/28 08:23:20;;;;;;;19.45;3.28;;;;;;;;;;5032460;28;20394;-76
2023/02/28 08:25:53;;;;;;;23.73;4.93;;;;;;;;;;5030772;28;20409;-75
2023/02/28 08:28:19;;;;;;;18.42;4.35;;;;;;;;;;5029773;28;20033;-75
2023/02/28 08:30:45;;;;;;;27.40;4.75;;;;;;;;;;5033591;28;20131;-74
2023/02/28 08:33:12;;;;;;;25.60;4.20;;;;;;;;;;5034298;28;20044;-73
2023/02/28 08:35:38;;;;;;;19.65;3.75;;;;;;;;;;5032053;28;20063;-74
2023/02/28 08:38:04;;;;;;;26.33;4.40;;;;;;;;;;5030446;28;20032;-75
2023/02/28 08:40:30;;;;;;;29.40;5.43;;;;;;;;;;5028209;28;20033;-74
2023/02/28 08:42:56;;;;;;;22.73;4.00;;;;;;;;;;5032561;28;20095;-76
2023/02/28 08:45:22;;;;;;;21.75;4.45;;;;;;;;;;5028838;28;20454;-73
2023/02/28 08:47:49;;;;;;;;;;;;;;;;;;5031878;28;20025;-71
2023/02/28 08:50:16;;;;;;;17.50;3.60;;;;;;;;;;5034346;28;19934;-73
2023/02/28 08:52:45;;;;;;;19.42;4.25;;;;;;;;;;5029664;28;20439;-75
2023/02/28 08:55:11;;;;;;;18.77;3.70;;;;;;;;;;5035846;28;20067;-75
2023/02/28 08:57:37;;;;;;;19.92;3.20;;;;;;;;;;5033554;28;20684;-73
2023/02/28 09:00:04;;;;;;;12.85;2.88;;;;;;;;;;5035257;28;20292;-75
2023/02/28 09:02:33;;;;;;;17.75;3.28;;;;;;;;;;5035689;28;20043;-73
2023/02/28 09:04:59;;;;;;;20.15;4.03;;;;;;;;;;5035292;28;20024;-73
2023/02/28 09:07:26;;;;;;;11.85;3.03;;;;;;;;;;5032641;28;20440;-73
2023/02/28 09:09:55;;;;;;;14.25;3.00;;;;;;;;;;5035939;28;20055;-75
2023/02/28 09:12:28;;;;;;;14.45;2.90;;;;;;;;;;5034407;28;20122;-74
2023/02/28 09:14:54;;;;;;;14.98;3.08;;;;;;;;;;5039522;28;20615;-73
2023/02/28 09:17:20;;;;;;;;;;;;;;;;;;5032467;28;20328;-73
2023/02/28 09:19:48;;;;;;;20.98;4.55;;;;;;;;;;5030446;28;20075;-75
2023/02/28 09:22:15;;;;;;;19.73;4.13;;;;;;;;;;5037390;28;20021;-75
2023/02/28 09:24:42;;;;;;;17.45;3.42;;;;;;;;;;5032206;28;20552;-75
2023/02/28 09:27:08;;;;;;;16.98;4.38;;;;;;;;;;5035344;28;20619;-76
2023/02/28 09:29:35;;;;;;;17.55;3.97;;;;;;;;;;5034335;28;20430;-75
2023/02/28 09:32:01;;;;;;;19.40;4.20;;;;;;;;;;5034868;28;20126;-75
2023/02/28 09:34:30;;;;;;;18.70;3.70;;;;;;;;;;5030918;28;20182;-75
2023/02/28 09:36:56;;;;;;;15.25;3.60;;;;;;;;;;5034540;28;20029;-76
2023/02/28 09:39:23;;;;;;;19.35;3.88;;;;;;;;;;5031918;28;20383;-76
2023/02/28 09:41:52;;;;;;;14.18;3.70;;;;;;;;;;5030896;28;20025;-74
2023/02/28 09:44:27;;;;;;;17.50;4.10;;;;;;;;;;5033742;28;20090;-74
2023/02/28 09:46:59;;;;;;;14.98;3.78;;;;;;;;;;5032821;28;20037;-75
2023/02/28 09:49:29;;;;;;;24.10;3.95;;;;;;;;;;5029865;28;20029;-74
2023/02/28 09:51:55;;;;;;;16.20;3.45;;;;;;;;;;5032070;28;20068;-74
2023/02/28 09:54:22;;;;;;;18.52;4.47;;;;;;;;;;5034141;28;20383;-75
2023/02/28 09:56:56;;;;;;;26.58;4.88;;;;;;;;;;5036506;28;20024;-74
2023/02/28 09:59:41;;;;;;;21.52;4.65;;;;;;;;;;5035148;28;20024;-77
2023/02/28 10:02:21;;;;;;;26.00;5.32;;;;;;;;;;5031692;28;20107;-74
2023/02/28 10:04:52;;;;;;;30.77;5.82;;;;;;;;;;5034308;28;20613;-75
2023/02/28 10:07:43;;;;;;;25.10;5.20;;;;;;;;;;5031273;28;20028;-75
2023/02/28 10:10:18;;;;;;;25.90;5.05;;;;;;;;;;5032874;28;20061;-76
2023/02/28 10:12:46;;;;;;;24.90;6.18;;;;;;;;;;5035726;28;20040;-74
2023/02/28 10:15:16;;;;;;;23.67;4.53;;;;;;;;;;5033961;28;20043;-73
2023/02/28 10:17:44;;;;;;;22.85;4.57;;;;;;;;;;5035633;28;20087;-74
2023/02/28 10:20:19;;;;;;;23.23;4.78;;;;;;;;;;5034102;28;20873;-74
2023/02/28 10:22:51;;;;;;;27.38;4.85;;;;;;;;;;5031390;28;20032;-76
2023/02/28 10:25:22;;;;;;;22.83;5.15;;;;;;;;;;5047777;28;20493;-75
2023/02/28 10:27:49;;;;;;;26.88;4.68;;;;;;;;;;5032830;28;20060;-74
2023/02/28 10:30:16;;;;;;;21.38;4.20;;;;;;;;;;5028522;28;20126;-74
2023/02/28 10:32:48;;;;;;;25.08;4.07;;;;;;;;;;5032392;28;20483;-74
2023/02/28 10:35:17;;;;;;;21.10;4.72;;;;;;;;;;5037434;28;20260;-74
2023/02/28 10:37:45;;;;;;;19.38;4.15;;;;;;;;;;5029838;28;20040;-74
2023/02/28 10:40:17;;;;;;;20.10;4.05;;;;;;;;;;5033972;28;20122;-74
2023/02/28 10:42:55;;;;;;;16.20;3.72;;;;;;;;;;5029623;28;22711;-74
2023/02/28 10:45:23;;;;;;;15.48;3.72;;;;;;;;;;5031429;28;20560;-76
2023/02/28 10:47:52;;;;;;;17.27;4.00;;;;;;;;;;5033969;28;20059;-74
2023/02/28 10:50:28;;;;;;;19.40;4.78;;;;;;;;;;5032563;28;20090;-75
2023/02/28 10:52:54;;;;;;;17.48;4.05;;;;;;;;;;5029522;28;20042;-75
2023/02/28 10:55:22;;;;;;;19.30;4.25;;;;;;;;;;5031742;28;20075;-77
2023/02/28 10:57:48;;;;;;;18.10;3.95;;;;;;;;;;5029515;28;20024;-77
2023/02/28 11:00:14;;;;;;;22.70;3.83;;;;;;;;;;5032616;28;20033;-75
2023/02/28 11:02:44;;;;;;;21.48;4.90;;;;;;;;;;5031964;28;20082;-75
2023/02/28 11:05:29;;;;;;;26.23;5.28;;;;;;;;;;5033180;28;20579;-75
2023/02/28 11:08:04;;;;;;;23.25;5.50;;;;;;;;;;5036787;28;20519;-74
2023/02/28 11:10:34;;;;;;;27.48;5.50;;;;;;;;;;5014549;28;20041;-76
2023/02/28 11:13:01;;;;;;;28.17;5.90;;;;;;;;;;5032437;28;20040;-75
2023/02/28 11:15:32;;;;;;;29.83;5.97;;;;;;;;;;5030361;28;20033;-75
2023/02/28 11:18:01;;;;;;;27.73;6.10;;;;;;;;;;5037433;28;20428;-75
2023/02/28 11:20:29;;;;;;;28.50;5.65;;;;;;;;;;5018914;28;20457;-74
2023/02/28 11:22:56;;;;;;;31.95;5.68;;;;;;;;;;5038468;28;20040;-75
2023/02/28 11:25:27;;;;;;;28.95;5.68;;;;;;;;;;5028116;28;20037;-76
2023/02/28 11:27:54;;;;;;;29.52;5.57;;;;;;;;;;5036231;28;20028;-76
2023/02/28 11:30:27;;;;;;;24.52;5.57;;;;;;;;;;5033412;28;20297;-75
2023/02/28 11:32:53;;;;;;;24.35;6.47;;;;;;;;;;5033814;28;20370;-76
2023/02/28 11:35:23;;;;;;;31.85;7.57;;;;;;;;;;5033299;28;20689;-77
2023/02/28 11:37:49;;;;;;;31.55;6.13;;;;;;;;;;5032761;28;20032;-75
2023/02/28 11:40:17;;;;;;;32.28;6.95;;;;;;;;;;5035608;28;20060;-75
2023/02/28 11:42:50;;;;;;;30.60;6.32;;;;;;;;;;5032675;28;20430;-75
2023/02/28 11:45:22;;;;;;;27.42;5.57;;;;;;;;;;5032436;28;20021;-75
2023/02/28 11:47:51;;;;;;;20.73;5.78;;;;;;;;;;5033588;28;20057;-76
2023/02/28 11:50:17;;;;;;;24.48;6.05;;;;;;;;;;5035560;28;20508;-74
2023/02/28 11:52:44;;;;;;;21.13;4.60;;;;;;;;;;5032192;28;20994;-75
2023/02/28 11:55:26;;;;;;;19.48;4.30;;;;;;;;;;5038996;28;20041;-75
2023/02/28 11:58:10;;;;;;;17.40;4.40;;;;;;;;;;5034465;28;20652;-75
2023/02/28 12:00:44;;;;;;;24.58;4.40;;;;;;;;;;5029769;28;20214;-75
2023/02/28 12:03:20;;;;;;;23.63;4.10;;;;;;;;;;5035642;28;20025;-75
2023/02/28 12:05:50;;;;;;;19.98;5.50;;;;;;;;;;5028407;28;20067;-75
2023/02/28 12:08:31;;;;;;;26.55;7.10;;;;;;;;;;5027868;28;20593;-75
2023/02/28 12:11:04;;;;;;;25.98;5.80;;;;;;;;;;5033607;28;20043;-75
2023/02/28 12:13:39;;;;;;;32.17;7.55;;;;;;;;;;5030782;28;20033;-75
2023/02/28 12:16:08;;;;;;;24.35;8.55;;;;;;;;;;5037265;28;20322;-74
2023/02/28 12:18:55;;;;;;;23.88;6.85;;;;;;;;;;5031386;28;20029;-76
2023/02/28 12:21:30;;;;;;;23.73;6.43;;;;;;;;;;5030815;28;20756;-74
2023/02/28 12:24:08;;;;;;;27.17;8.45;;;;;;;;;;5027579;28;20037;-76
2023/02/28 12:26:40;;;;;;;25.10;7.13;;;;;;;;;;5029957;28;20057;-76
2023/02/28 12:29:24;;;;;;;25.20;6.57;;;;;;;;;;5036992;28;20029;-75
2023/02/28 12:31:55;;;;;;;23.80;6.25;;;;;;;;;;5033216;28;20037;-75
2023/02/28 12:34:28;;;;;;;25.67;7.05;;;;;;;;;;5033317;28;20151;-75
2023/02/28 12:36:56;;;;;;;22.88;6.40;;;;;;;;;;5033103;28;20128;-76
2023/02/28 12:39:27;;;;;;;28.20;7.68;;;;;;;;;;5038127;28;20037;-76
2023/02/28 12:41:56;;;;;;;26.02;5.90;;;;;;;;;;5021845;28;20067;-75
2023/02/28 12:44:33;;;;;;;28.30;6.90;;;;;;;;;;5028211;28;20025;-76
2023/02/28 12:47:01;;;;;;;32.05;6.60;;;;;;;;;;5035904;28;20079;-77
2023/02/28 12:49:46;;;;;;;25.25;5.93;;;;;;;;;;5031735;28;20028;-77
2023/02/28 12:52:13;;;;;;;20.58;6.10;;;;;;;;;;5034366;28;20031;-77
2023/02/28 12:54:52;;;;;;;26.77;6.15;;;;;;;;;;5026176;28;20090;-74
2023/02/28 12:57:28;;;;;;;26.92;6.32;;;;;;;;;;5026628;28;20041;-74
2023/02/28 12:59:56;;;;;;;26.92;5.90;;;;;;;;;;5037779;28;20017;-76
2023/02/28 13:02:35;;;;;;;28.58;6.03;;;;;;;;;;5030965;28;20031;-74
2023/02/28 13:05:01;;;;;;;21.52;5.40;;;;;;;;;;5032186;28;20487;-75
2023/02/28 13:07:36;;;;;;;28.20;6.20;;;;;;;;;;5033607;28;20501;-75
2023/02/28 13:10:03;;;;;;;31.58;6.05;;;;;;;;;;5037398;28;20025;-76
2023/02/28 13:12:29;;;;;;;31.52;6.15;;;;;;;;;;5034990;28;20841;-76
2023/02/28 13:15:05;;;;;;;32.30;6.18;;;;;;;;;;5036579;28;20143;-76
2023/02/28 13:17:41;;;;;;;32.63;6.60;;;;;;;;;;5032364;28;20024;-76
2023/02/28 13:20:18;;;;;;;31.95;6.88;;;;;;;;;;5030436;28;20037;-73
2023/02/28 13:22:46;;;;;;;23.23;5.30;;;;;;;;;;5031682;28;22045;-74
2023/02/28 13:25:30;;;;;;;28.60;5.65;;;;;;;;;;5033286;28;20102;-75
2023/02/28 13:28:00;;;;;;;30.42;6.97;;;;;;;;;;5033005;28;20035;-74
2023/02/28 13:30:45;;;;;;;25.77;5.93;;;;;;;;;;5030074;28;20052;-75
2023/02/28 13:33:20;;;;;;;47.63;21.25;;;;;;;;;;5032113;28;20039;-74
2023/02/28 13:41:38;;;;;;;26.77;7.43;;;;;;;;;;5621293;22;20164;-75
2023/02/28 13:44:15;;;;;;;26.98;7.45;;;;;;;;;;5074082;28;20278;-75
2023/02/28 13:46:50;;;;;;;23.42;6.55;;;;;;;;;;5069494;28;20040;-77
2023/02/28 13:49:25;;;;;;;27.60;7.05;;;;;;;;;;5063701;28;20024;-74
2023/02/28 13:52:08;;;;;;;29.35;9.68;;;;;;;;;;5064484;28;20035;-73
2023/02/28 13:54:42;;;;;;;43.83;21.40;;;;;;;;;;5044564;28;20313;-75
2023/02/28 13:57:16;;;;;;;61.70;34.30;;;;;;;;;;5063636;28;20047;-75
2023/02/28 13:59:45;;;;;;;30.50;12.13;;;;;;;;;;5059765;28;20709;-74
2023/02/28 14:02:14;;;;;;;24.85;7.75;;;;;;;;;;5056693;28;20024;-74
2023/02/28 14:04:51;;;;;;;27.05;11.10;;;;;;;;;;5031873;28;20028;-74
2023/02/28 14:07:37;;;;;;;31.88;11.90;;;;;;;;;;5063202;28;20040;-74
2023/02/28 14:10:08;;;;;;;187.95;120.22;;;;;;;;;;5066675;28;20354;-74
2023/02/28 14:12:54;;;;;;;96.53;54.55;;;;;;;;;;5077485;28;20028;-74
2023/02/28 14:15:39;;;;;;;77.90;44.67;;;;;;;;;;5047722;28;20028;-75
2023/02/28 14:18:32;;;;;;;68.20;43.28;;;;;;;;;;5061938;28;20032;-75
2023/02/28 14:21:18;;;;;;;30.15;14.50;;;;;;;;;;5081054;28;20615;-75
2023/02/28 14:23:57;;;;;;;26.27;8.25;;;;;;;;;;5070597;28;20058;-75
2023/02/28 14:26:46;;;;;;;26.08;11.38;;;;;;;;;;5054798;28;20069;-75
2023/02/28 14:29:14;;;;;;;28.85;14.27;;;;;;;;;;4988986;28;20102;-75
2023/02/28 14:32:01;;;;;;;23.30;7.03;;;;;;;;;;4996248;28;20122;-74
2023/02/28 14:34:40;;;;;;;25.75;7.07;;;;;;;;;;4993278;28;20049;-74
2023/02/28 14:37:11;;;;;;;21.58;4.80;;;;;;;;;;4967325;28;20063;-75
2023/02/28 14:39:41;;;;;;;16.48;4.55;;;;;;;;;;4993602;28;20108;-74
2023/02/28 14:42:27;;;;;;;19.58;4.65;;;;;;;;;;4994168;28;20047;-74
2023/02/28 14:44:56;;;;;;;18.08;4.63;;;;;;;;;;4976321;28;20052;-74
2023/02/28 14:47:24;;;;;;;16.92;5.15;;;;;;;;;;4971021;28;20063;-74
2023/02/28 14:49:50;;;;;;;18.52;5.25;;;;;;;;;;4975205;28;20045;-76
2023/02/28 14:52:19;;;;;;;20.33;5.90;;;;;;;;;;4982996;28;20053;-75
2023/02/28 14:54:46;;;;;;;25.80;6.45;;;;;;;;;;4986245;28;20201;-74
2023/02/28 14:57:26;;;;;;;24.27;6.63;;;;;;;;;;4980618;28;20543;-74
2023/02/28 15:00:00;;;;;;;31.73;11.40;;;;;;;;;;4968796;28;20038;-74